Terminal Aerodrome Forecast
Issued by NWS

Home | Current Version | Previous Version | Text Only | Print | Product List | Glossary On
Versions: 1 2 3 4 5 6 7 8 9 10 11 12 13 14 15 16 17 18 19 20
000
FTUS46 KEKA 272343
TAFUKI
TAF
KUKI 272343Z 2800/2824 31010KT P6SM SCT030 SCT050 SCT100
      TEMPO 2800/2802 29010G17KT P6SM BKN050
     FM280300 VRB03KT P6SM SCT250
     FM281000 VRB03KT 3SM BR SCT010 SCT250
     FM281700 31006KT P6SM FEW030 SCT150 BKN250=

USA.gov is the U.S. government's official web portal to all federal, state and local government web resources and services.